Greenwich Township, New Jersey
Current Conditions -  °F | °C
As of 7:54 PM on Monday 26 Jan 2015 (Local Time) from KMIV Reporting Station
Overcast Overcast  
Wind Chill: 18°   Ceiling: 1400
Heat Index: 30°   Visibility: 10mi
Dew Point: 25°   Wind: 20mph
Humidity: 82%   Direction: 20°NNE
Pressure: 29.68"   Gusts: 26mph
Location:  39.386°N, 75.3403°W
Report Text: KMIV 270054Z AUTO 02017G23KT 10SM OVC014 M01/M04 A2968 RMK AO2 PK WND 02029/0008 SLP048 T10111039
Loading
Personal Weather Stations






























Interactive Weather Map New forecast layout! Learn more

10-Day Weather Forecast

Advertisements
Track Severe Weather on mobile